This is the latest recevied weather packets stored in our database for station/object E27EKO-13. If no packets are shown the sender has not sent any weather packets the latest 10 day(s).
| Time | Temp. | Humidity | Pressure | Rain* | Wind** | Luminosity | Snow |
|---|---|---|---|---|---|---|---|
| 1777774421 | 40° C | 53% | 1010 hPa | - | - | 0 W/m² | - |
| 1777774099 | 40° C | 54% | 1009 hPa | - | - | 0 W/m² | - |
| 1777773920 | 40° C | 54% | 1009 hPa | - | - | 0 W/m² | - |
| 1777773598 | 40° C | 53% | 1010 hPa | - | - | 0 W/m² | - |
| 1777773276 | 40° C | 53% | 1009 hPa | - | - | 0 W/m² | - |
| 1777772954 | 40.56° C | 51% | 1009 hPa | - | - | 0 W/m² | - |
| 1777772632 | 41.67° C | 48% | 1009 hPa | - | - | 0 W/m² | - |
| 1777772310 | 45.56° C | 41% | 1009 hPa | - | - | 0 W/m² | - |
| 1777771988 | 46.67° C | 40% | 1009 hPa | - | - | 0 W/m² | - |
| 1777771744 | 49.44° C | 36% | 1009 hPa | - | - | 0 W/m² | - |
| 1777771421 | 50° C | 35% | 1009 hPa | - | - | 0 W/m² | - |
| 1777771099 | 48.89° C | 37% | 1009 hPa | - | - | 0 W/m² | - |
| 1777770777 | 49.44° C | 36% | 1009 hPa | - | - | 0 W/m² | - |
| 1777770455 | 47.78° C | 38% | 1009 hPa | - | - | 0 W/m² | - |
| 1777770133 | 48.89° C | 37% | 1009 hPa | - | - | 0 W/m² | - |
| 1777769811 | 47.78° C | 39% | 1009 hPa | - | - | 0 W/m² | - |
| 1777769489 | 48.33° C | 38% | 1009 hPa | - | - | 0 W/m² | - |
| 1777769167 | 47.22° C | 40% | 1009 hPa | - | - | 0 W/m² | - |
| 1777768845 | 46.67° C | 41% | 1009 hPa | - | - | 0 W/m² | - |
| 1777768523 | 46.67° C | 41% | 1009 hPa | - | - | 0 W/m² | - |
| 1777768201 | 46.11° C | 42% | 1009 hPa | - | - | 0 W/m² | - |
| 1777767879 | 45° C | 45% | 1009 hPa | - | - | 0 W/m² | - |
| 1777767557 | 43.89° C | 47% | 1009 hPa | - | - | 0 W/m² | - |
| 1777767434 | 43.89° C | 47% | 1009 hPa | - | - | 0 W/m² | - |
| 1777767112 | 42.78° C | 50% | 1009 hPa | - | - | 0 W/m² | - |
* Rain since midnight (hover to see other rain measurements)
** Current wind speed in m/s (hover to see current wind gust speed)